createdAt,value
2019-01-25T00:05:02.866Z,119.47
2019-01-25T00:10:11.840Z,118.25
2019-01-25T00:15:20.875Z,118.18
2019-01-25T00:20:29.906Z,120.42
2019-01-25T00:25:38.940Z,114.57
2019-01-25T00:30:47.936Z,122.42
2019-01-25T00:35:56.960Z,120.95
2019-01-25T00:41:05.945Z,112.95
2019-01-25T00:46:14.960Z,114.71
2019-01-25T00:51:23.967Z,122.27
2019-01-25T00:56:32.988Z,126.07
2019-01-25T01:01:41.987Z,118.92
2019-01-25T01:06:51.008Z,122.32
2019-01-25T01:12:00.009Z,117.22
2019-01-25T01:17:09.028Z,124.20
2019-01-25T01:22:18.012Z,122.24
2019-01-25T01:27:27.089Z,119.06
2019-01-25T01:32:36.078Z,121.61
2019-01-25T01:37:45.167Z,118.61
2019-01-25T01:42:54.164Z,119.46
2019-01-25T01:48:03.182Z,126.22
2019-01-25T01:53:12.164Z,122.43
2019-01-25T01:58:21.164Z,119.30
2019-01-25T02:03:28.683Z,128.21
2019-01-25T02:08:37.714Z,117.19
2019-01-25T02:13:46.720Z,121.73
2019-01-25T02:18:55.731Z,121.94
2019-01-25T02:24:04.721Z,126.37
2019-01-25T02:29:13.756Z,119.34
2019-01-25T02:34:22.846Z,130.25
2019-01-25T02:39:31.874Z,127.49
2019-01-25T02:44:40.892Z,124.63
2019-01-25T02:49:49.969Z,131.11
2019-01-25T02:54:58.965Z,127.43
2019-01-25T03:00:07.992Z,130.93
2019-01-25T03:05:16.986Z,119.95
2019-01-25T03:10:28.869Z,124.91
2019-01-25T03:15:34.516Z,129.01
2019-01-25T03:20:43.613Z,130.35
2019-01-25T03:25:52.588Z,126.19
2019-01-25T03:31:01.606Z,122.93
2019-01-25T03:36:10.596Z,130.21
2019-01-25T03:41:19.616Z,132.64
2019-01-25T03:46:28.620Z,132.43
2019-01-25T03:51:37.636Z,132.49
2019-01-25T03:56:47.947Z,132.60
2019-01-25T04:01:55.241Z,127.35
2019-01-25T04:07:04.226Z,127.65
2019-01-25T04:12:13.253Z,125.18
2019-01-25T04:17:22.277Z,125.04
2019-01-25T04:22:31.354Z,130.59
2019-01-25T04:27:40.352Z,123.94
2019-01-25T04:32:49.450Z,127.31
2019-01-25T04:37:58.392Z,136.47
2019-01-25T04:43:07.408Z,132.77
2019-01-25T04:48:16.433Z,128.64
2019-01-25T04:53:25.440Z,135.84
2019-01-25T04:58:34.429Z,131.09
2019-01-25T05:03:43.390Z,126.73
2019-01-25T05:08:52.334Z,130.70
2019-01-25T05:14:01.331Z,126.24
2019-01-25T05:19:10.279Z,125.04
2019-01-25T05:24:19.283Z,132.62
2019-01-25T05:29:28.247Z,127.06
2019-01-25T05:34:37.275Z,127.67
2019-01-25T05:39:46.220Z,129.87
2019-01-25T05:44:55.202Z,137.05
2019-01-25T05:50:04.158Z,131.15
2019-01-25T05:55:13.114Z,126.77
2019-01-25T06:00:22.058Z,132.27
2019-01-25T06:05:31.006Z,119.82
2019-01-25T06:10:39.962Z,131.45
2019-01-25T06:15:48.919Z,137.58
2019-01-25T06:20:57.851Z,126.67
2019-01-25T06:26:06.866Z,133.27
2019-01-25T06:31:15.806Z,131.23
2019-01-25T06:36:29.502Z,129.27
2019-01-25T06:41:28.482Z,125.45
2019-01-25T06:46:37.488Z,122.97
2019-01-25T06:51:46.454Z,119.77
2019-01-25T06:57:01.307Z,128.44
2019-01-25T07:02:00.258Z,127.94
2019-01-25T07:07:09.258Z,139.76
2019-01-25T07:12:18.198Z,132.57
2019-01-25T07:17:28.850Z,132.49
2019-01-25T07:22:27.791Z,132.86
2019-01-25T07:27:36.799Z,137.05
2019-01-25T07:32:45.819Z,138.82
2019-01-25T07:37:54.742Z,144.94
2019-01-25T07:43:03.694Z,139.58
2019-01-25T07:48:12.727Z,134.59
2019-01-25T07:53:22.284Z,137.09
2019-01-25T07:58:30.195Z,140.84
2019-01-25T08:03:39.134Z,142.96
2019-01-25T08:08:48.086Z,132.55
2019-01-25T08:14:00.063Z,108.45
2019-01-25T08:18:57.519Z,105.84
2019-01-25T08:24:06.517Z,126.74
2019-01-25T08:29:15.518Z,123.72
2019-01-25T08:34:29.935Z,111.55
2019-01-25T08:39:28.989Z,116.72
2019-01-25T08:44:36.475Z,111.22
2019-01-25T08:49:45.518Z,104.42
2019-01-25T08:54:54.507Z,114.84
2019-01-25T09:00:03.576Z,123.14
2019-01-25T09:05:12.688Z,119.01
2019-01-25T09:10:22.798Z,101.63
2019-01-25T09:15:22.645Z,96.86
2019-01-25T09:20:30.270Z,98.08
2019-01-25T09:25:39.182Z,91.54
2019-01-25T09:30:48.727Z,94.42
2019-01-25T09:35:57.662Z,89.54
2019-01-25T09:41:07.311Z,93.27
2019-01-25T09:46:16.279Z,95.35
2019-01-25T09:51:25.226Z,90.88
2019-01-25T09:56:34.459Z,95.00
2019-01-25T10:01:43.483Z,99.86
2019-01-25T10:06:54.845Z,102.66
2019-01-25T10:11:53.810Z,102.18
2019-01-25T10:17:02.739Z,108.82
2019-01-25T10:22:11.770Z,108.98
2019-01-25T10:27:20.709Z,108.00
2019-01-25T10:32:29.650Z,112.15
2019-01-25T10:37:38.638Z,103.92
2019-01-25T10:42:53.027Z,108.93
2019-01-25T10:47:56.090Z,106.35
2019-01-25T10:53:05.006Z,119.93
2019-01-25T10:58:13.998Z,110.22
2019-01-25T11:03:22.962Z,107.05
2019-01-25T11:08:32.942Z,116.85
2019-01-25T11:13:40.484Z,106.39
2019-01-25T11:18:49.446Z,110.73
2019-01-25T11:23:58.398Z,110.59
2019-01-25T11:29:07.393Z,104.93
2019-01-25T11:34:16.315Z,102.12
2019-01-25T11:39:25.322Z,106.10
2019-01-25T11:44:34.246Z,102.95
2019-01-25T11:49:43.202Z,96.84
2019-01-25T11:54:52.130Z,93.75
2019-01-25T12:00:01.147Z,94.59
2019-01-25T12:05:10.071Z,91.65
2019-01-25T12:10:19.082Z,102.05
2019-01-25T12:15:27.977Z,100.88
2019-01-25T12:20:36.922Z,93.14
2019-01-25T12:25:44.451Z,94.53
2019-01-25T12:30:53.374Z,96.37
2019-01-25T12:36:02.350Z,101.54
2019-01-25T12:41:11.267Z,100.12
2019-01-25T12:46:20.238Z,89.38
2019-01-25T12:51:29.154Z,93.18
2019-01-25T12:56:38.143Z,85.87
2019-01-25T13:01:47.105Z,86.51
2019-01-25T13:06:58.706Z,93.74
2019-01-25T13:11:57.666Z,85.55
2019-01-25T13:17:06.662Z,91.14
2019-01-25T13:22:15.630Z,100.19
2019-01-25T13:27:24.609Z,98.21
2019-01-25T13:32:33.623Z,108.14
2019-01-25T13:37:42.558Z,104.37
2019-01-25T13:42:51.574Z,112.21
2019-01-25T13:48:00.523Z,116.51
2019-01-25T13:53:09.563Z,112.46
2019-01-25T13:58:18.487Z,120.19
2019-01-25T14:03:27.495Z,127.77
2019-01-25T14:08:36.458Z,116.74
2019-01-25T14:13:46.987Z,115.84
2019-01-25T14:18:53.965Z,111.60
2019-01-25T14:24:02.909Z,111.17
2019-01-25T14:29:11.882Z,106.84
2019-01-25T14:34:22.247Z,110.52
2019-01-25T14:39:21.265Z,108.85
2019-01-25T14:44:30.200Z,104.87
2019-01-25T14:49:39.207Z,115.01
2019-01-25T14:54:48.126Z,107.32
2019-01-25T14:59:57.135Z,111.34
2019-01-25T15:05:07.293Z,115.46
2019-01-25T15:10:14.594Z,121.37
2019-01-25T15:15:23.534Z,120.27
2019-01-25T15:20:32.515Z,117.75
2019-01-25T15:25:41.448Z,127.90
2019-01-25T15:30:50.450Z,124.27
2019-01-25T15:35:59.400Z,122.01
2019-01-25T15:41:08.437Z,127.94
2019-01-25T15:46:17.391Z,125.36
2019-01-25T15:51:41.626Z,125.41
2019-01-25T15:56:42.654Z,128.40
2019-01-25T16:01:31.638Z,119.38
2019-01-25T16:06:40.606Z,121.23
2019-01-25T16:11:49.527Z,119.20
2019-01-25T16:16:58.490Z,122.47
2019-01-25T16:22:07.399Z,119.30
2019-01-25T16:27:16.434Z,115.35
2019-01-25T16:32:25.620Z,105.71
2019-01-25T16:37:34.633Z,106.88
2019-01-25T16:42:43.542Z,99.02
2019-01-25T16:47:53.826Z,101.00
2019-01-25T16:52:52.762Z,104.25
2019-01-25T16:58:01.802Z,110.91
2019-01-25T17:03:09.250Z,108.49
2019-01-25T17:08:19.125Z,113.34
2019-01-25T17:13:26.735Z,111.35
2019-01-25T17:18:35.734Z,108.89
2019-01-25T17:23:47.693Z,103.64
2019-01-25T17:28:46.747Z,108.24
2019-01-25T17:33:55.662Z,102.71
2019-01-25T17:39:07.398Z,99.08
2019-01-25T17:44:06.354Z,97.77
2019-01-25T17:49:15.316Z,88.25
2019-01-25T17:54:24.250Z,86.25
2019-01-25T17:59:33.174Z,82.92
2019-01-25T18:04:42.172Z,75.67
2019-01-25T18:09:51.111Z,76.27
2019-01-25T18:15:00.175Z,71.88
2019-01-25T18:20:09.055Z,75.98
2019-01-25T18:25:18.062Z,73.29
2019-01-25T18:30:27.018Z,78.89
2019-01-25T18:35:35.974Z,75.65
2019-01-25T18:40:44.908Z,71.90
2019-01-25T18:45:53.895Z,69.67
2019-01-25T18:51:02.806Z,75.56
2019-01-25T18:56:11.798Z,72.03
2019-01-25T19:01:20.713Z,76.42
2019-01-25T19:06:29.686Z,73.78
2019-01-25T19:11:38.623Z,76.40
2019-01-25T19:16:47.606Z,71.51
2019-01-25T19:21:56.518Z,75.28
2019-01-25T19:27:05.526Z,69.74
2019-01-25T19:32:14.518Z,77.28
2019-01-25T19:37:24.470Z,74.57
2019-01-25T19:42:33.410Z,76.31
2019-01-25T19:47:42.419Z,78.53
2019-01-25T19:52:51.351Z,79.39
2019-01-25T19:58:00.402Z,81.31
2019-01-25T20:03:09.336Z,86.96
2019-01-25T20:08:18.626Z,85.89
2019-01-25T20:13:27.558Z,88.97
2019-01-25T20:18:36.571Z,93.11
2019-01-25T20:23:45.510Z,102.92
2019-01-25T20:28:54.495Z,119.19
2019-01-25T20:34:03.447Z,132.74
2019-01-25T20:39:12.407Z,137.87
2019-01-25T20:44:21.351Z,150.30
2019-01-25T20:49:30.322Z,170.07
2019-01-25T20:54:39.271Z,179.02
2019-01-25T20:59:48.263Z,203.20
2019-01-25T21:04:57.222Z,212.59
2019-01-25T21:10:06.252Z,215.37
2019-01-25T21:15:15.194Z,209.48
2019-01-25T21:20:24.170Z,220.48
2019-01-25T21:25:33.122Z,230.84
2019-01-25T21:30:42.140Z,215.00
2019-01-25T21:35:51.049Z,244.20
2019-01-25T21:41:00.066Z,268.86
2019-01-25T21:46:08.998Z,236.08
2019-01-25T21:51:17.967Z,240.67
2019-01-25T21:56:26.952Z,243.79
2019-01-25T22:01:35.968Z,262.17
2019-01-25T22:06:44.898Z,279.60
2019-01-25T22:11:53.834Z,284.83
2019-01-25T22:17:02.808Z,262.40
2019-01-25T22:22:11.787Z,279.09
2019-01-25T22:27:20.738Z,280.04
2019-01-25T22:32:29.726Z,300.73
2019-01-25T22:37:38.678Z,315.99
2019-01-25T22:42:47.666Z,281.68
2019-01-25T22:47:56.581Z,302.96
2019-01-25T22:53:05.526Z,297.03
2019-01-25T22:58:14.537Z,277.91
2019-01-25T23:03:23.526Z,272.86
2019-01-25T23:08:32.475Z,292.39
2019-01-25T23:13:41.410Z,306.74
2019-01-25T23:18:50.537Z,280.96
2019-01-25T23:23:59.454Z,284.14
2019-01-25T23:29:08.424Z,299.67
2019-01-25T23:34:17.347Z,274.38
2019-01-25T23:39:26.298Z,279.11
2019-01-25T23:44:35.245Z,280.45
2019-01-25T23:49:44.264Z,242.63
2019-01-25T23:54:53.203Z,236.28
